createdAt,value
2018-10-07T00:02:08.570Z,99.90
2018-10-07T00:05:33.045Z,99.90
2018-10-07T00:08:57.496Z,99.90
2018-10-07T00:12:21.906Z,99.90
2018-10-07T00:15:46.318Z,99.90
2018-10-07T00:19:10.741Z,99.90
2018-10-07T00:22:35.262Z,99.90
2018-10-07T00:25:59.739Z,99.90
2018-10-07T00:29:24.147Z,99.90
2018-10-07T00:32:48.569Z,99.90
2018-10-07T00:36:12.987Z,99.90
2018-10-07T00:39:37.443Z,99.90
2018-10-07T00:43:01.888Z,99.90
2018-10-07T00:46:26.320Z,99.90
2018-10-07T00:49:50.745Z,99.90
2018-10-07T00:53:15.177Z,99.90
2018-10-07T00:56:39.564Z,99.90
2018-10-07T01:00:04.076Z,99.90
2018-10-07T01:03:28.477Z,99.90
2018-10-07T01:06:52.938Z,99.90
2018-10-07T01:10:17.376Z,99.90
2018-10-07T01:13:41.832Z,99.90
2018-10-07T01:17:06.616Z,99.90
2018-10-07T01:20:31.005Z,99.90
2018-10-07T01:23:55.479Z,99.90
2018-10-07T01:27:19.921Z,99.90
2018-10-07T01:30:44.470Z,99.90
2018-10-07T01:34:08.884Z,99.90
2018-10-07T01:37:33.365Z,99.90
2018-10-07T01:40:57.801Z,99.90
2018-10-07T01:44:22.225Z,99.90
2018-10-07T01:47:46.651Z,99.90
2018-10-07T01:51:11.072Z,99.90
2018-10-07T01:54:35.699Z,99.90
2018-10-07T01:58:00.332Z,99.90
2018-10-07T02:01:24.775Z,99.90
2018-10-07T02:04:52.266Z,99.90
2018-10-07T02:08:16.779Z,99.90
2018-10-07T02:11:41.342Z,99.90
2018-10-07T02:15:06.152Z,99.90
2018-10-07T02:18:30.688Z,99.90
2018-10-07T02:21:55.158Z,99.90
2018-10-07T02:25:19.597Z,99.90
2018-10-07T02:28:44.111Z,99.90
2018-10-07T02:32:08.545Z,99.90
2018-10-07T02:35:32.972Z,99.90
2018-10-07T02:38:57.402Z,99.90
2018-10-07T02:42:21.830Z,99.90
2018-10-07T02:45:46.282Z,99.90
2018-10-07T02:49:10.649Z,99.90
2018-10-07T02:52:40.209Z,99.90
2018-10-07T02:56:04.655Z,99.90
2018-10-07T02:59:29.072Z,99.90
2018-10-07T03:02:54.034Z,99.90
2018-10-07T03:06:18.497Z,99.90
2018-10-07T03:09:42.944Z,99.90
2018-10-07T03:13:07.374Z,99.90
2018-10-07T03:16:31.858Z,99.90
2018-10-07T03:19:56.468Z,99.90
2018-10-07T03:23:21.021Z,99.90
2018-10-07T03:26:45.508Z,99.90
2018-10-07T03:30:09.958Z,99.90
2018-10-07T03:33:34.375Z,99.90
2018-10-07T03:36:58.969Z,99.90
2018-10-07T03:40:23.413Z,99.90
2018-10-07T03:43:47.863Z,99.90
2018-10-07T03:47:12.407Z,99.90
2018-10-07T03:50:36.835Z,99.90
2018-10-07T03:54:01.248Z,99.90
2018-10-07T03:57:25.633Z,99.90
2018-10-07T04:00:50.151Z,99.90
2018-10-07T04:04:14.622Z,99.90
2018-10-07T04:07:39.088Z,99.90
2018-10-07T04:11:03.475Z,99.90
2018-10-07T04:14:27.997Z,99.90
2018-10-07T04:17:52.428Z,99.90
2018-10-07T04:21:16.839Z,99.90
2018-10-07T04:24:41.377Z,99.90
2018-10-07T04:28:05.783Z,99.90
2018-10-07T04:31:30.196Z,99.90
2018-10-07T04:34:54.603Z,99.90
2018-10-07T04:38:19.060Z,99.90
2018-10-07T04:41:44.314Z,99.90
2018-10-07T04:45:08.769Z,99.90
2018-10-07T04:48:33.261Z,99.90
2018-10-07T04:51:57.700Z,99.90
2018-10-07T04:55:22.093Z,99.90
2018-10-07T04:58:53.214Z,99.90
2018-10-07T05:02:17.674Z,99.90
2018-10-07T05:05:42.086Z,99.90
2018-10-07T05:09:11.133Z,99.90
2018-10-07T05:12:35.722Z,99.90
2018-10-07T05:16:04.090Z,99.90
2018-10-07T05:19:28.514Z,99.90
2018-10-07T05:22:52.909Z,99.90
2018-10-07T05:26:17.361Z,99.90
2018-10-07T05:29:41.800Z,99.90
2018-10-07T05:33:06.285Z,99.90
2018-10-07T05:36:30.735Z,99.90
2018-10-07T05:39:55.183Z,99.90
2018-10-07T05:43:19.769Z,99.90
2018-10-07T05:46:44.189Z,99.90
2018-10-07T05:50:08.665Z,99.90
2018-10-07T05:53:33.061Z,99.90
2018-10-07T05:56:57.458Z,99.90
2018-10-07T06:00:21.920Z,99.90
2018-10-07T06:04:34.296Z,99.90
2018-10-07T06:07:58.849Z,99.90
2018-10-07T06:11:23.253Z,99.90
2018-10-07T06:15:04.718Z,99.90
2018-10-07T06:18:29.173Z,99.90
2018-10-07T06:21:53.595Z,99.90
2018-10-07T06:25:18.039Z,99.90
2018-10-07T06:28:42.438Z,99.90
2018-10-07T06:32:06.925Z,99.90
2018-10-07T06:35:31.411Z,99.90
2018-10-07T06:38:55.937Z,99.90
2018-10-07T06:42:20.369Z,99.90
2018-10-07T06:45:44.829Z,99.90
2018-10-07T06:49:09.292Z,99.90
2018-10-07T06:52:33.911Z,99.90
2018-10-07T06:55:58.382Z,99.90
2018-10-07T06:59:22.785Z,99.90
2018-10-07T07:02:47.225Z,99.90
2018-10-07T07:06:11.650Z,99.90
2018-10-07T07:09:36.051Z,99.90
2018-10-07T07:13:00.553Z,99.90
2018-10-07T07:16:24.963Z,99.90
2018-10-07T07:19:49.613Z,99.90
2018-10-07T07:23:14.028Z,99.90
2018-10-07T07:26:38.437Z,99.90
2018-10-07T07:30:02.837Z,99.90
2018-10-07T07:33:27.288Z,99.90
2018-10-07T07:36:51.742Z,99.90
2018-10-07T07:40:16.161Z,99.90
2018-10-07T07:43:40.669Z,99.90
2018-10-07T07:47:05.135Z,99.90
2018-10-07T07:50:29.726Z,99.90
2018-10-07T07:53:54.164Z,99.90
2018-10-07T07:57:18.771Z,99.90
2018-10-07T08:00:43.164Z,99.90
2018-10-07T08:04:07.607Z,99.90
2018-10-07T08:07:33.036Z,99.90
2018-10-07T08:10:57.450Z,99.90
2018-10-07T08:14:21.857Z,99.90
2018-10-07T08:17:46.257Z,99.90
2018-10-07T08:21:13.493Z,99.90
2018-10-07T08:24:37.950Z,99.90
2018-10-07T08:28:09.374Z,99.90
2018-10-07T08:31:33.794Z,99.40
2018-10-07T08:34:58.292Z,99.80
2018-10-07T08:38:22.768Z,98.90
2018-10-07T08:41:48.186Z,98.60
2018-10-07T08:45:17.859Z,99.10
2018-10-07T08:48:42.340Z,98.20
2018-10-07T08:52:06.764Z,97.70
2018-10-07T08:55:31.161Z,97.50
2018-10-07T08:58:55.610Z,97.50
2018-10-07T09:02:20.123Z,96.70
2018-10-07T09:05:47.104Z,95.00
2018-10-07T09:09:12.411Z,94.20
2018-10-07T09:12:37.004Z,94.30
2018-10-07T09:16:01.525Z,92.60
2018-10-07T09:19:25.956Z,92.20
2018-10-07T09:22:50.705Z,91.10
2018-10-07T09:26:15.136Z,90.10
2018-10-07T09:29:39.669Z,88.00
2018-10-07T09:33:04.144Z,84.40
2018-10-07T09:36:28.747Z,79.50
2018-10-07T09:39:53.323Z,72.70
2018-10-07T09:43:17.695Z,69.70
2018-10-07T09:46:42.189Z,67.70
2018-10-07T09:50:06.718Z,66.10
2018-10-07T09:53:31.144Z,63.10
2018-10-07T09:56:55.539Z,58.90
2018-10-07T10:00:25.143Z,56.80
2018-10-07T10:03:49.617Z,53.90
2018-10-07T10:07:17.383Z,54.40
2018-10-07T10:10:42.826Z,53.20
2018-10-07T10:14:07.389Z,50.20
2018-10-07T10:17:31.924Z,50.40
2018-10-07T10:21:05.156Z,48.80
2018-10-07T10:27:02.445Z,49.50
2018-10-07T10:30:42.407Z,48.40
2018-10-07T10:34:17.712Z,47.80
2018-10-07T10:38:12.803Z,48.20
2018-10-07T10:41:44.921Z,47.70
2018-10-07T10:45:13.816Z,48.10
2018-10-07T10:48:44.377Z,49.00
2018-10-07T10:54:25.588Z,48.20
2018-10-07T10:57:55.290Z,47.30
2018-10-07T11:03:40.927Z,46.20
2018-10-07T11:07:16.030Z,45.40
2018-10-07T11:10:51.776Z,44.00
2018-10-07T11:15:32.317Z,43.10
2018-10-07T11:19:10.904Z,42.80
2018-10-07T11:23:19.155Z,41.90
2018-10-07T11:27:04.375Z,41.90
2018-10-07T11:32:47.036Z,40.40
2018-10-07T11:36:26.291Z,39.70
2018-10-07T11:41:06.701Z,39.90
2018-10-07T11:45:40.137Z,39.40
2018-10-07T11:49:12.534Z,40.00
2018-10-07T11:52:53.457Z,38.10
2018-10-07T11:56:17.798Z,38.40
2018-10-07T11:59:42.196Z,37.10
2018-10-07T12:03:06.665Z,37.30
2018-10-07T12:06:31.083Z,37.50
2018-10-07T12:09:55.495Z,36.10
2018-10-07T12:13:19.943Z,35.40
2018-10-07T12:16:44.444Z,35.90
2018-10-07T12:20:08.944Z,35.20
2018-10-07T12:23:33.379Z,33.50
2018-10-07T12:26:57.809Z,34.40
2018-10-07T12:30:22.266Z,32.70
2018-10-07T12:33:46.664Z,32.00
2018-10-07T12:37:11.096Z,32.00
2018-10-07T12:40:35.556Z,32.40
2018-10-07T12:44:00.111Z,31.40
2018-10-07T12:47:24.536Z,31.20
2018-10-07T12:50:48.942Z,30.50
2018-10-07T12:54:13.512Z,29.90
2018-10-07T12:57:37.940Z,30.00
2018-10-07T13:01:02.402Z,29.30
2018-10-07T13:04:26.828Z,29.60
2018-10-07T13:07:51.387Z,29.70
2018-10-07T13:11:15.837Z,29.30
2018-10-07T13:14:40.263Z,29.40
2018-10-07T13:18:04.664Z,29.50
2018-10-07T13:21:29.146Z,28.30
2018-10-07T13:24:53.574Z,28.10
2018-10-07T13:28:17.988Z,28.20
2018-10-07T13:31:42.473Z,28.70
2018-10-07T13:35:06.942Z,27.70
2018-10-07T13:38:31.378Z,28.20
2018-10-07T13:41:55.799Z,28.30
2018-10-07T13:45:20.235Z,27.70
2018-10-07T13:48:44.655Z,27.60
2018-10-07T13:52:09.097Z,27.20
2018-10-07T13:55:33.476Z,27.60
2018-10-07T13:58:57.974Z,27.70
2018-10-07T14:02:22.432Z,28.50
2018-10-07T14:05:46.845Z,28.80
2018-10-07T14:09:11.311Z,30.00
2018-10-07T14:12:35.735Z,31.10
2018-10-07T14:16:00.168Z,31.40
2018-10-07T14:19:24.595Z,31.80
2018-10-07T14:22:49.008Z,32.30
2018-10-07T14:26:13.441Z,33.00
2018-10-07T14:29:37.920Z,31.70
2018-10-07T14:33:02.327Z,30.00
2018-10-07T14:36:26.775Z,30.00
2018-10-07T14:39:51.216Z,30.00
2018-10-07T14:43:15.671Z,29.60
2018-10-07T14:46:40.158Z,28.30
2018-10-07T14:50:04.703Z,27.40
2018-10-07T14:53:30.383Z,26.70
2018-10-07T14:56:54.760Z,26.40
2018-10-07T15:00:19.220Z,25.80
2018-10-07T15:03:43.630Z,26.30
2018-10-07T15:07:08.081Z,26.70
2018-10-07T15:10:32.463Z,26.10
2018-10-07T15:13:56.948Z,25.80
2018-10-07T15:17:21.377Z,25.70
2018-10-07T15:20:45.785Z,24.90
2018-10-07T15:24:10.251Z,25.70
2018-10-07T15:27:34.693Z,25.50
2018-10-07T15:30:59.198Z,26.90
2018-10-07T15:34:23.655Z,27.90
2018-10-07T15:37:48.081Z,29.20
2018-10-07T15:41:12.497Z,29.80
2018-10-07T15:44:37.035Z,30.10
2018-10-07T15:48:01.477Z,28.60
2018-10-07T15:51:25.967Z,28.50
2018-10-07T15:54:50.555Z,28.50
2018-10-07T15:58:14.995Z,31.70
2018-10-07T16:01:39.466Z,35.50
2018-10-07T16:05:04.065Z,38.60
2018-10-07T16:08:28.498Z,39.50
2018-10-07T16:11:52.934Z,41.20
2018-10-07T16:15:17.414Z,42.90
2018-10-07T16:18:41.931Z,43.10
2018-10-07T16:22:06.462Z,44.30
2018-10-07T16:25:30.944Z,45.30
2018-10-07T16:28:55.350Z,46.10
2018-10-07T16:32:19.814Z,47.20
2018-10-07T16:35:44.294Z,47.70
2018-10-07T16:39:09.033Z,48.50
2018-10-07T16:42:33.408Z,49.30
2018-10-07T16:45:57.840Z,49.30
2018-10-07T16:49:22.362Z,50.40
2018-10-07T16:52:46.838Z,50.80
2018-10-07T16:56:11.409Z,51.60
2018-10-07T16:59:35.816Z,52.90
2018-10-07T17:03:00.319Z,53.20
2018-10-07T17:06:24.737Z,55.40
2018-10-07T17:09:49.149Z,56.60
2018-10-07T17:13:13.763Z,58.50
2018-10-07T17:16:38.064Z,60.50
2018-10-07T17:20:02.511Z,63.50
2018-10-07T17:23:26.946Z,66.10
2018-10-07T17:26:51.429Z,67.90
2018-10-07T17:30:15.856Z,71.30
2018-10-07T17:33:40.284Z,72.20
2018-10-07T17:37:04.713Z,74.40
2018-10-07T17:40:29.127Z,76.60
2018-10-07T17:43:53.708Z,78.20
2018-10-07T17:47:18.330Z,79.70
2018-10-07T17:50:42.837Z,81.60
2018-10-07T17:54:07.452Z,82.20
2018-10-07T17:57:31.900Z,83.10
2018-10-07T18:00:56.355Z,84.40
2018-10-07T18:04:20.800Z,84.70
2018-10-07T18:07:45.205Z,87.10
2018-10-07T18:11:09.697Z,88.10
2018-10-07T18:14:34.129Z,88.40
2018-10-07T18:17:58.536Z,89.20
2018-10-07T18:21:22.964Z,89.00
2018-10-07T18:24:47.452Z,89.50
2018-10-07T18:28:11.955Z,90.50
2018-10-07T18:31:36.395Z,90.80
2018-10-07T18:35:01.265Z,91.80
2018-10-07T18:38:25.694Z,92.60
2018-10-07T18:41:50.094Z,92.90
2018-10-07T18:45:14.522Z,93.20
2018-10-07T18:48:39.006Z,94.10
2018-10-07T18:52:03.528Z,94.10
2018-10-07T18:55:30.804Z,94.70
2018-10-07T18:58:55.342Z,94.60
2018-10-07T19:02:20.273Z,94.80
2018-10-07T19:05:44.703Z,95.00
2018-10-07T19:09:10.942Z,95.00
2018-10-07T19:12:35.422Z,95.50
2018-10-07T19:15:59.833Z,95.60
2018-10-07T19:19:24.239Z,95.50
2018-10-07T19:22:48.603Z,95.60
2018-10-07T19:26:13.007Z,96.10
2018-10-07T19:29:37.470Z,96.50
2018-10-07T19:33:01.867Z,96.90
2018-10-07T19:36:26.294Z,97.40
2018-10-07T19:39:50.688Z,97.70
2018-10-07T19:43:15.111Z,98.00
2018-10-07T19:46:39.540Z,98.50
2018-10-07T19:50:03.957Z,98.50
2018-10-07T19:53:28.445Z,99.10
2018-10-07T19:56:52.922Z,99.20
2018-10-07T20:00:17.395Z,99.40
2018-10-07T20:03:41.950Z,99.90
2018-10-07T20:07:06.563Z,99.90
2018-10-07T20:10:32.400Z,99.90
2018-10-07T20:13:56.804Z,99.90
2018-10-07T20:17:21.186Z,99.90
2018-10-07T20:20:45.634Z,99.90
2018-10-07T20:24:10.087Z,99.90
2018-10-07T20:27:34.536Z,99.90
2018-10-07T20:30:58.973Z,99.90
2018-10-07T20:34:23.421Z,99.90
2018-10-07T20:37:48.564Z,99.90
2018-10-07T20:41:13.034Z,99.90
2018-10-07T20:44:37.457Z,99.90
2018-10-07T20:48:01.934Z,99.90
2018-10-07T20:51:26.429Z,99.90
2018-10-07T20:54:50.894Z,99.90
2018-10-07T20:58:15.430Z,99.90
2018-10-07T21:01:39.874Z,99.90
2018-10-07T21:05:04.351Z,99.90
2018-10-07T21:08:28.766Z,99.90
2018-10-07T21:11:53.278Z,99.90
2018-10-07T21:15:17.671Z,99.90
2018-10-07T21:18:42.106Z,99.90
2018-10-07T21:22:06.531Z,99.90
2018-10-07T21:25:30.941Z,99.90
2018-10-07T21:28:55.390Z,99.90
2018-10-07T21:32:19.841Z,99.90
2018-10-07T21:35:44.324Z,99.90
2018-10-07T21:39:09.996Z,99.90
2018-10-07T21:42:34.465Z,99.90
2018-10-07T21:45:58.924Z,99.90
2018-10-07T21:49:23.420Z,99.90
2018-10-07T21:52:47.931Z,99.90
2018-10-07T21:56:12.439Z,99.90
2018-10-07T21:59:36.970Z,99.90
2018-10-07T22:03:01.451Z,99.90
2018-10-07T22:06:25.863Z,99.90
2018-10-07T22:09:50.290Z,99.90
2018-10-07T22:13:14.778Z,99.90
2018-10-07T22:16:43.155Z,99.90
2018-10-07T22:20:07.735Z,99.90
2018-10-07T22:23:32.164Z,99.90
2018-10-07T22:26:56.644Z,99.90
2018-10-07T22:30:21.086Z,99.90
2018-10-07T22:33:45.572Z,99.90
2018-10-07T22:37:10.102Z,99.90
2018-10-07T22:40:34.852Z,99.90
2018-10-07T22:43:59.402Z,99.90
2018-10-07T22:47:23.873Z,99.90
2018-10-07T22:50:49.145Z,99.90
2018-10-07T22:54:13.709Z,99.90
2018-10-07T22:57:38.447Z,99.90
2018-10-07T23:01:03.013Z,99.90
2018-10-07T23:04:31.030Z,99.90
2018-10-07T23:07:55.458Z,99.90
2018-10-07T23:11:19.858Z,99.90
2018-10-07T23:14:44.250Z,99.90
2018-10-07T23:18:08.670Z,99.90
2018-10-07T23:21:33.048Z,99.90
2018-10-07T23:24:57.465Z,99.90
2018-10-07T23:28:21.954Z,99.90
2018-10-07T23:31:46.356Z,99.90
2018-10-07T23:35:10.797Z,99.90
2018-10-07T23:38:35.183Z,99.90
2018-10-07T23:41:59.638Z,99.90
2018-10-07T23:45:24.028Z,99.90
2018-10-07T23:48:48.457Z,99.90
2018-10-07T23:52:13.121Z,99.90
2018-10-07T23:55:37.443Z,99.90
2018-10-07T23:59:08.613Z,99.90
